Time;durP1;ratioP1;P1;durP2;ratioP2;P2;SDS_P1;SDS_P2;PMS_P1;PMS_P2;Temp;Humidity;BMP_temperature;BMP_pressure;BME280_temperature;BME280_humidity;BME280_pressure;Samples;Min_cycle;Max_cycle;Signal;HPM_P1;HPM_P2
2021/06/22 00:00:28;;;;;;;3.20;2.87;;;28.20;54.70;;;;;;5027260;28;20539;-48
2021/06/22 00:02:54;;;;;;;3.20;3.00;;;28.00;54.80;;;;;;5028550;28;20236;-48
2021/06/22 00:05:21;;;;;;;3.40;2.37;;;28.10;54.90;;;;;;5025062;28;20472;-48
2021/06/22 00:07:55;;;;;;;3.30;2.50;;;28.00;54.80;;;;;;5024028;28;20536;-52
2021/06/22 00:10:26;;;;;;;4.47;2.70;;;28.00;54.90;;;;;;5025326;28;20494;-50
2021/06/22 00:12:52;;;;;;;4.90;2.97;;;28.00;54.80;;;;;;5024157;28;20895;-48
2021/06/22 00:15:20;;;;;;;3.83;2.70;;;28.00;54.80;;;;;;5024849;28;20845;-51
2021/06/22 00:17:46;;;;;;;4.47;2.33;;;28.10;54.60;;;;;;5021283;28;20470;-49
2021/06/22 00:20:13;;;;;;;2.80;2.20;;;28.00;54.70;;;;;;5024901;28;20803;-48
2021/06/22 00:22:40;;;;;;;3.90;2.63;;;28.00;54.70;;;;;;5018758;28;20443;-47
2021/06/22 00:25:07;;;;;;;3.20;2.60;;;28.00;54.60;;;;;;5021903;28;20479;-51
2021/06/22 00:27:33;;;;;;;2.70;2.50;;;28.00;54.60;;;;;;5017726;28;20451;-49
2021/06/22 00:29:58;;;;;;;4.47;2.33;;;28.10;54.40;;;;;;5024132;28;20446;-49
2021/06/22 00:32:24;;;;;;;3.50;2.87;;;28.10;54.90;;;;;;5026816;28;20335;-49
2021/06/22 00:34:50;;;;;;;4.03;2.70;;;28.10;54.20;;;;;;5030037;28;20232;-49
2021/06/22 00:37:18;;;;;;;2.70;2.50;;;28.10;54.30;;;;;;5026409;28;20672;-49
2021/06/22 00:39:45;;;;;;;4.67;3.17;;;28.10;54.40;;;;;;5018851;28;20185;-48
2021/06/22 00:42:11;;;;;;;4.23;2.80;;;28.10;54.40;;;;;;5030461;28;20946;-50
2021/06/22 00:44:52;;;;;;;4.30;2.30;;;28.10;54.50;;;;;;5028227;28;20444;-50
2021/06/22 00:47:18;;;;;;;4.60;2.97;;;28.10;54.60;;;;;;5023027;28;20449;-48
2021/06/22 00:49:45;;;;;;;3.30;3.10;;;28.00;54.60;;;;;;5026915;28;20486;-48
2021/06/22 00:52:11;;;;;;;3.07;2.87;;;28.00;54.60;;;;;;5024212;28;20447;-47
2021/06/22 00:54:37;;;;;;;3.60;3.30;;;28.00;54.60;;;;;;5028051;28;20487;-48
2021/06/22 00:57:09;;;;;;;4.60;3.40;;;28.00;54.90;;;;;;5023135;28;21813;-48
2021/06/22 00:59:35;;;;;;;3.20;2.90;;;28.00;54.60;;;;;;5023376;28;20236;-48
2021/06/22 01:02:05;;;;;;;4.10;3.30;;;28.00;54.50;;;;;;5022872;28;20449;-48
2021/06/22 01:04:31;;;;;;;2.67;2.33;;;27.90;54.70;;;;;;5023600;28;20551;-49
2021/06/22 01:06:58;;;;;;;2.80;2.60;;;27.90;54.60;;;;;;5027578;28;20455;-52
2021/06/22 01:09:24;;;;;;;4.10;3.00;;;27.90;54.60;;;;;;5024379;28;20444;-51
2021/06/22 01:11:51;;;;;;;3.87;3.50;;;28.00;54.50;;;;;;5027211;28;20529;-51
2021/06/22 01:14:16;;;;;;;5.43;3.40;;;28.00;54.50;;;;;;5023109;28;20443;-52
2021/06/22 01:16:42;;;;;;;3.00;2.73;;;28.00;55.10;;;;;;5020536;28;20468;-52
2021/06/22 01:19:09;;;;;;;4.10;2.90;;;27.90;54.60;;;;;;5017864;28;20193;-52
2021/06/22 01:21:36;;;;;;;4.20;3.20;;;27.80;54.60;;;;;;5025211;28;20547;-51
2021/06/22 01:24:13;;;;;;;5.43;3.17;;;27.90;54.60;;;;;;5031047;28;20440;-49
2021/06/22 01:26:48;;;;;;;3.10;2.70;;;27.90;54.70;;;;;;5024601;28;20459;-52
2021/06/22 01:29:14;;;;;;;3.50;3.03;;;27.80;54.70;;;;;;5024263;28;20447;-52
2021/06/22 01:31:40;;;;;;;5.97;3.20;;;27.80;54.80;;;;;;5025146;28;20444;-51
2021/06/22 01:34:05;;;;;;;3.00;2.80;;;27.80;54.90;;;;;;5026922;28;20442;-51
2021/06/22 01:36:33;;;;;;;5.80;2.83;;;27.80;54.80;;;;;;5032110;28;20279;-51
2021/06/22 01:38:59;;;;;;;3.80;2.83;;;27.80;54.80;;;;;;5030502;28;20276;-51
2021/06/22 01:41:25;;;;;;;4.87;3.40;;;27.90;54.60;;;;;;5023169;28;20539;-48
2021/06/22 01:43:52;;;;;;;4.83;3.30;;;28.00;54.50;;;;;;5031580;28;20199;-51
2021/06/22 01:46:18;;;;;;;3.63;3.03;;;28.00;54.60;;;;;;5027528;28;20428;-48
2021/06/22 01:48:44;;;;;;;3.20;2.90;;;27.90;54.80;;;;;;5025255;28;20455;-51
2021/06/22 01:51:10;;;;;;;3.43;2.80;;;27.80;55.20;;;;;;5026154;28;20448;-51
2021/06/22 01:53:35;;;;;;;2.83;2.63;;;27.80;55.00;;;;;;5031975;28;20201;-50
2021/06/22 01:56:01;;;;;;;6.83;3.20;;;27.80;54.90;;;;;;5026106;28;20283;-48
2021/06/22 01:58:27;;;;;;;3.00;2.70;;;27.80;54.90;;;;;;5031026;28;20217;-48
2021/06/22 02:00:56;;;;;;;2.70;2.50;;;27.70;54.90;;;;;;5021587;28;20251;-48
2021/06/22 02:03:25;;;;;;;3.83;2.50;;;27.70;54.70;;;;;;5022585;28;20205;-48
2021/06/22 02:05:51;;;;;;;4.07;2.60;;;27.80;54.80;;;;;;5024934;28;20467;-48
2021/06/22 02:08:18;;;;;;;6.33;3.50;;;27.70;54.70;;;;;;5025701;28;20476;-47
2021/06/22 02:10:44;;;;;;;5.47;3.40;;;27.70;54.80;;;;;;5025034;28;20198;-48
2021/06/22 02:13:11;;;;;;;3.10;2.77;;;27.70;54.80;;;;;;5027154;28;20478;-51
2021/06/22 02:15:37;;;;;;;3.30;2.33;;;27.70;54.60;;;;;;5028480;28;20574;-50
2021/06/22 02:18:03;;;;;;;3.20;2.83;;;27.70;54.70;;;;;;5027957;28;20445;-49
2021/06/22 02:20:29;;;;;;;2.80;2.30;;;27.80;54.40;;;;;;5029237;28;20451;-51
2021/06/22 02:22:55;;;;;;;2.73;2.53;;;27.80;54.10;;;;;;5025563;28;20215;-48
2021/06/22 02:25:21;;;;;;;4.70;2.00;;;27.80;54.10;;;;;;5022984;28;20531;-49
2021/06/22 02:27:47;;;;;;;2.50;2.10;;;27.70;54.10;;;;;;5024525;28;20296;-49
2021/06/22 02:30:18;;;;;;;2.00;1.80;;;27.70;54.30;;;;;;5024355;28;20478;-48
2021/06/22 02:32:44;;;;;;;4.10;2.23;;;27.70;54.20;;;;;;5023473;28;20513;-48
2021/06/22 02:35:12;;;;;;;2.60;2.30;;;27.70;53.90;;;;;;5028364;28;20536;-48
2021/06/22 02:37:39;;;;;;;6.43;2.73;;;27.70;53.80;;;;;;5026203;28;20280;-51
2021/06/22 02:40:06;;;;;;;2.33;2.00;;;27.70;54.00;;;;;;5025422;28;20446;-49
2021/06/22 02:42:32;;;;;;;2.07;1.87;;;27.70;53.80;;;;;;5028116;28;20542;-48
2021/06/22 02:44:58;;;;;;;2.20;2.10;;;27.80;53.50;;;;;;5027840;28;20440;-49
2021/06/22 02:47:23;;;;;;;3.93;2.10;;;27.70;53.80;;;;;;5028234;28;20189;-49
2021/06/22 02:49:50;;;;;;;5.80;2.23;;;27.60;54.00;;;;;;5022877;28;20276;-50
2021/06/22 02:52:15;;;;;;;2.23;2.03;;;27.60;54.10;;;;;;5027971;28;20240;-49
2021/06/22 02:54:41;;;;;;;2.57;1.87;;;27.60;54.00;;;;;;5030845;28;20869;-52
2021/06/22 02:57:08;;;;;;;3.00;2.60;;;27.60;54.00;;;;;;5024631;28;20263;-52
2021/06/22 02:59:35;;;;;;;2.37;2.20;;;27.70;53.80;;;;;;5024813;28;20884;-52
2021/06/22 03:02:02;;;;;;;3.83;2.33;;;27.70;53.70;;;;;;5023094;28;20448;-48
2021/06/22 03:04:27;;;;;;;2.50;2.30;;;27.70;53.70;;;;;;5020964;28;20447;-49
2021/06/22 03:06:53;;;;;;;3.80;2.70;;;27.60;53.80;;;;;;5023038;28;20444;-48
2021/06/22 03:09:19;;;;;;;7.33;2.70;;;27.60;53.60;;;;;;5015093;28;20202;-51
2021/06/22 03:11:44;;;;;;;3.93;3.17;;;27.60;53.60;;;;;;5022016;28;20221;-48
2021/06/22 03:14:10;;;;;;;6.17;2.97;;;27.60;53.80;;;;;;5025930;28;20189;-49
2021/06/22 03:16:36;;;;;;;3.10;2.90;;;27.50;53.60;;;;;;5026731;28;20236;-48
2021/06/22 03:19:02;;;;;;;2.80;2.60;;;27.50;53.60;;;;;;5027786;28;20193;-49
2021/06/22 03:21:27;;;;;;;5.57;3.23;;;27.40;53.70;;;;;;5027175;28;20221;-50
2021/06/22 03:23:53;;;;;;;7.30;2.73;;;27.40;54.00;;;;;;5027001;28;20196;-50
2021/06/22 03:26:18;;;;;;;4.30;2.57;;;27.40;54.10;;;;;;5021458;28;22544;-49
2021/06/22 03:28:44;;;;;;;2.83;2.63;;;27.30;53.70;;;;;;5024876;28;20200;-48
2021/06/22 03:31:10;;;;;;;4.67;2.60;;;27.20;53.80;;;;;;5024926;28;20217;-50
2021/06/22 03:33:36;;;;;;;3.10;2.90;;;27.10;54.10;;;;;;5027323;28;20196;-49
2021/06/22 03:36:02;;;;;;;3.57;3.27;;;27.10;54.50;;;;;;5031858;28;20574;-50
2021/06/22 03:38:28;;;;;;;5.13;2.73;;;27.00;54.60;;;;;;5028364;28;20205;-51
2021/06/22 03:40:53;;;;;;;3.50;3.20;;;26.80;54.70;;;;;;5017010;28;20510;-51
2021/06/22 03:43:22;;;;;;;4.10;3.03;;;26.70;55.20;;;;;;5020579;28;20552;-50
2021/06/22 03:45:48;;;;;;;5.47;2.67;;;26.50;56.00;;;;;;5025175;28;20205;-50
2021/06/22 03:48:14;;;;;;;4.20;2.57;;;26.40;56.40;;;;;;5027560;28;20451;-47
2021/06/22 03:50:40;;;;;;;2.60;2.40;;;26.40;56.40;;;;;;5029223;28;20439;-46
2021/06/22 03:53:06;;;;;;;2.77;2.47;;;26.40;56.20;;;;;;5027593;28;20185;-48
2021/06/22 03:55:31;;;;;;;9.97;3.80;;;26.40;56.30;;;;;;5027991;28;20231;-50
2021/06/22 03:58:02;;;;;;;6.27;5.47;;;26.40;56.60;;;;;;5024329;28;20448;-49
2021/06/22 04:00:29;;;;;;;11.30;6.20;;;26.40;56.70;;;;;;5025424;28;20213;-49
2021/06/22 04:02:57;;;;;;;9.27;6.30;;;26.50;57.00;;;;;;5025374;28;20452;-50
2021/06/22 04:05:22;;;;;;;8.87;6.97;;;26.40;57.30;;;;;;5015188;28;20793;-47
2021/06/22 04:07:48;;;;;;;7.77;7.07;;;26.40;57.70;;;;;;5027096;28;20450;-51
2021/06/22 04:10:14;;;;;;;12.37;9.67;;;26.30;58.20;;;;;;5020218;28;20201;-46
2021/06/22 04:12:40;;;;;;;10.30;7.50;;;26.10;58.80;;;;;;5022247;28;20233;-50
2021/06/22 04:15:07;;;;;;;8.73;7.93;;;25.90;59.40;;;;;;5028319;28;20231;-49
2021/06/22 04:17:33;;;;;;;9.33;8.57;;;25.70;61.30;;;;;;5026708;28;20444;-47
2021/06/22 04:19:58;;;;;;;11.03;10.10;;;25.60;60.90;;;;;;5026428;28;20497;-47
2021/06/22 04:22:24;;;;;;;11.23;7.90;;;25.80;60.40;;;;;;5026739;28;20189;-50
2021/06/22 04:24:50;;;;;;;10.07;9.27;;;25.80;60.10;;;;;;5025480;28;20284;-47
2021/06/22 04:27:15;;;;;;;10.17;9.30;;;25.50;61.40;;;;;;5029888;28;20201;-46
2021/06/22 04:29:42;;;;;;;11.90;10.97;;;25.30;61.90;;;;;;5027226;28;20200;-50
2021/06/22 04:32:08;;;;;;;9.83;7.83;;;25.00;63.20;;;;;;5026855;28;20224;-47
2021/06/22 04:34:33;;;;;;;9.43;6.00;;;24.90;63.90;;;;;;5026222;28;20474;-50
2021/06/22 04:36:59;;;;;;;6.87;6.43;;;25.10;63.20;;;;;;5031476;28;20225;-47
2021/06/22 04:39:25;;;;;;;8.77;7.20;;;25.30;62.40;;;;;;5023000;28;20207;-50
2021/06/22 04:41:50;;;;;;;6.90;6.30;;;25.50;61.90;;;;;;5023562;28;20228;-47
2021/06/22 04:44:16;;;;;;;8.23;7.53;;;25.60;61.60;;;;;;5022280;28;20201;-47
2021/06/22 04:46:42;;;;;;;9.90;8.93;;;25.70;61.20;;;;;;5025890;28;20197;-51
2021/06/22 04:49:07;;;;;;;9.53;6.40;;;25.70;61.20;;;;;;5025398;28;20194;-50
2021/06/22 04:51:33;;;;;;;9.30;8.40;;;25.40;62.20;;;;;;5021627;28;20189;-50
2021/06/22 04:53:59;;;;;;;8.03;7.43;;;25.50;62.10;;;;;;5028372;28;20668;-50
2021/06/22 04:56:25;;;;;;;10.53;9.57;;;25.70;61.30;;;;;;5028268;28;20229;-49
2021/06/22 04:58:53;;;;;;;9.53;8.83;;;26.00;60.80;;;;;;5031319;28;20203;-46
2021/06/22 05:01:19;;;;;;;9.40;8.40;;;26.00;60.40;;;;;;5027644;28;20866;-46
2021/06/22 05:03:45;;;;;;;9.27;8.50;;;25.80;60.80;;;;;;5033058;28;20451;-48
2021/06/22 05:06:12;;;;;;;9.10;8.40;;;25.90;60.50;;;;;;5034091;28;20311;-49
2021/06/22 05:08:41;;;;;;;9.97;8.20;;;26.00;60.00;;;;;;5027302;28;20428;-51
2021/06/22 05:11:07;;;;;;;9.53;8.50;;;26.00;60.20;;;;;;5029119;28;20451;-46
2021/06/22 05:13:33;;;;;;;7.23;6.63;;;26.10;60.00;;;;;;5028788;28;20475;-46
2021/06/22 05:15:59;;;;;;;10.27;9.27;;;26.10;59.70;;;;;;5029839;28;20316;-46
2021/06/22 05:18:25;;;;;;;9.30;8.60;;;26.20;59.80;;;;;;5032599;28;20448;-47
2021/06/22 05:20:51;;;;;;;7.80;7.20;;;26.30;59.20;;;;;;5024527;28;20521;-46
2021/06/22 05:23:17;;;;;;;9.17;8.40;;;25.70;60.70;;;;;;5032594;28;20205;-48
2021/06/22 05:25:43;;;;;;;9.23;8.43;;;25.60;61.20;;;;;;5033963;28;20220;-46
2021/06/22 05:28:08;;;;;;;7.83;6.60;;;25.60;61.80;;;;;;5028683;28;20207;-49
2021/06/22 05:30:34;;;;;;;6.90;6.27;;;25.70;61.30;;;;;;5031998;28;21254;-46
2021/06/22 05:33:00;;;;;;;8.40;7.70;;;25.90;60.60;;;;;;5028911;28;20197;-49
2021/06/22 05:35:26;;;;;;;7.70;7.10;;;26.10;59.80;;;;;;5022655;28;20228;-46
2021/06/22 05:37:52;;;;;;;5.57;4.70;;;26.30;59.90;;;;;;5034317;28;20261;-46
2021/06/22 05:40:17;;;;;;;9.67;8.77;;;26.50;59.00;;;;;;5032525;28;20192;-46
2021/06/22 05:42:43;;;;;;;8.83;8.07;;;26.60;58.90;;;;;;5028945;28;20193;-48
2021/06/22 05:45:09;;;;;;;6.80;6.30;;;26.60;58.60;;;;;;5032077;28;20215;-51
2021/06/22 05:47:34;;;;;;;6.93;6.43;;;26.70;58.40;;;;;;5033845;28;20185;-46
2021/06/22 05:50:01;;;;;;;6.00;5.50;;;26.80;58.10;;;;;;5031983;28;20715;-46
2021/06/22 05:52:26;;;;;;;6.93;6.33;;;26.80;57.70;;;;;;5026905;28;20204;-50
2021/06/22 05:54:52;;;;;;;4.10;3.80;;;26.90;57.90;;;;;;5025769;28;20475;-47
2021/06/22 05:57:18;;;;;;;5.10;4.50;;;27.00;57.70;;;;;;5024090;28;20194;-47
2021/06/22 05:59:43;;;;;;;6.03;5.60;;;27.00;57.40;;;;;;5025890;28;20653;-45
2021/06/22 06:02:09;;;;;;;6.23;5.73;;;27.10;57.40;;;;;;5033089;28;20197;-49
2021/06/22 06:04:35;;;;;;;5.97;5.57;;;27.10;57.40;;;;;;5030156;28;20276;-51
2021/06/22 06:07:00;;;;;;;7.27;6.47;;;27.00;57.40;;;;;;5023104;28;20642;-49
2021/06/22 06:09:27;;;;;;;4.90;4.60;;;26.90;57.60;;;;;;5027622;28;20242;-45
2021/06/22 06:11:53;;;;;;;6.37;5.77;;;26.70;58.10;;;;;;5031097;28;20240;-48
2021/06/22 06:14:19;;;;;;;7.30;6.70;;;26.80;58.30;;;;;;5025401;28;20459;-50
2021/06/22 06:16:44;;;;;;;7.37;3.83;;;26.90;58.20;;;;;;5029455;28;20846;-51
2021/06/22 06:19:10;;;;;;;7.63;6.43;;;26.90;58.00;;;;;;5030537;28;20197;-51
2021/06/22 06:21:37;;;;;;;7.67;7.07;;;27.10;57.80;;;;;;5028437;28;20296;-50
2021/06/22 06:24:03;;;;;;;6.60;6.00;;;27.10;57.80;;;;;;5032195;28;20209;-51
2021/06/22 06:26:33;;;;;;;6.80;6.27;;;27.20;57.60;;;;;;5033313;28;20451;-50
2021/06/22 06:29:08;;;;;;;7.50;6.30;;;27.40;57.60;;;;;;5025149;28;20436;-49
2021/06/22 06:31:33;;;;;;;7.40;6.63;;;27.40;57.50;;;;;;5018077;28;20628;-46
2021/06/22 06:33:59;;;;;;;6.70;5.40;;;27.40;56.90;;;;;;5013769;28;20948;-51
2021/06/22 06:36:25;;;;;;;6.70;6.10;;;27.40;56.80;;;;;;5023513;28;20235;-49
2021/06/22 06:38:50;;;;;;;6.33;5.83;;;27.50;56.70;;;;;;5033561;28;20205;-50
2021/06/22 06:41:16;;;;;;;6.30;5.80;;;27.60;56.70;;;;;;5033104;28;20565;-49
2021/06/22 06:43:42;;;;;;;5.40;4.93;;;27.70;56.50;;;;;;5030485;28;20252;-52
2021/06/22 06:46:07;;;;;;;5.80;5.20;;;27.70;56.50;;;;;;5032143;28;20436;-50
2021/06/22 06:48:33;;;;;;;7.07;5.60;;;27.80;56.50;;;;;;5032594;28;20189;-49
2021/06/22 06:50:59;;;;;;;8.03;7.23;;;27.80;56.70;;;;;;5025263;28;20704;-49
2021/06/22 06:53:25;;;;;;;7.33;6.83;;;27.80;56.70;;;;;;5030362;28;20435;-46
2021/06/22 06:55:50;;;;;;;8.33;7.63;;;27.80;56.70;;;;;;5032553;28;20675;-48
2021/06/22 06:58:16;;;;;;;8.60;6.77;;;27.80;56.90;;;;;;5032112;28;20683;-50
2021/06/22 07:00:42;;;;;;;7.97;7.17;;;27.80;56.90;;;;;;5032288;28;20202;-49
2021/06/22 07:03:08;;;;;;;7.50;7.00;;;27.80;56.80;;;;;;5017783;28;20571;-46
2021/06/22 07:05:35;;;;;;;8.00;7.30;;;27.80;56.80;;;;;;5019078;28;20445;-46
2021/06/22 07:08:01;;;;;;;8.67;7.87;;;27.80;56.60;;;;;;5018564;28;20189;-45
2021/06/22 07:10:28;;;;;;;8.60;8.00;;;27.90;56.80;;;;;;5028280;28;20435;-46
2021/06/22 07:12:59;;;;;;;8.77;8.03;;;27.90;56.70;;;;;;5031277;28;20464;-51
2021/06/22 07:15:25;;;;;;;7.43;6.23;;;27.90;56.60;;;;;;5020976;28;20536;-48
2021/06/22 07:17:52;;;;;;;10.43;9.53;;;27.90;56.70;;;;;;5024265;28;20518;-47
2021/06/22 07:20:18;;;;;;;9.70;8.80;;;27.90;56.50;;;;;;5023059;28;20994;-50
2021/06/22 07:22:43;;;;;;;12.23;11.23;;;28.00;56.50;;;;;;5018430;28;20428;-50
2021/06/22 07:25:09;;;;;;;7.83;6.73;;;28.00;56.30;;;;;;5021725;28;20552;-46
2021/06/22 07:27:35;;;;;;;10.63;9.67;;;28.00;56.00;;;;;;5028203;28;20605;-48
2021/06/22 07:30:01;;;;;;;11.60;10.70;;;28.10;55.90;;;;;;5015988;28;20468;-50
2021/06/22 07:32:26;;;;;;;12.07;10.90;;;28.20;55.90;;;;;;5030992;28;20193;-46
2021/06/22 07:34:52;;;;;;;11.07;10.13;;;28.20;55.70;;;;;;5031218;28;20213;-45
2021/06/22 07:37:18;;;;;;;10.37;9.07;;;28.20;55.70;;;;;;5024940;28;20734;-45
2021/06/22 07:39:44;;;;;;;11.07;8.40;;;28.30;55.70;;;;;;5031283;28;20195;-49
2021/06/22 07:42:09;;;;;;;9.33;8.47;;;28.20;55.50;;;;;;5030761;28;20514;-48
2021/06/22 07:44:35;;;;;;;8.23;7.30;;;28.30;55.30;;;;;;5029622;28;20211;-47
2021/06/22 07:47:00;;;;;;;8.07;7.37;;;28.20;55.10;;;;;;5028561;28;20197;-45
2021/06/22 07:49:26;;;;;;;8.60;7.90;;;28.30;55.10;;;;;;5030415;28;20189;-45
2021/06/22 07:51:52;;;;;;;9.43;8.60;;;28.20;55.10;;;;;;5031886;28;20189;-49
2021/06/22 07:54:17;;;;;;;12.40;8.23;;;28.30;55.20;;;;;;5031208;28;20197;-46
2021/06/22 07:56:43;;;;;;;7.10;6.60;;;28.30;55.20;;;;;;5030636;28;20275;-48
2021/06/22 07:59:08;;;;;;;7.53;7.00;;;28.20;55.00;;;;;;5009731;28;20197;-46
2021/06/22 08:01:34;;;;;;;8.53;7.23;;;28.30;55.20;;;;;;5031064;28;20278;-45
2021/06/22 08:04:00;;;;;;;13.53;8.50;;;28.30;55.20;;;;;;5024542;28;20208;-45
2021/06/22 08:06:26;;;;;;;8.60;7.80;;;28.30;54.90;;;;;;5020402;28;20588;-48
2021/06/22 08:08:51;;;;;;;8.60;7.60;;;28.40;54.90;;;;;;5024871;28;20193;-49
2021/06/22 08:11:17;;;;;;;7.20;6.60;;;28.40;54.80;;;;;;5025693;28;20193;-45
2021/06/22 08:13:43;;;;;;;6.70;5.97;;;28.40;54.50;;;;;;5031792;28;20645;-47
2021/06/22 08:16:09;;;;;;;6.77;6.27;;;28.40;54.50;;;;;;5028438;28;20236;-46
2021/06/22 08:18:35;;;;;;;8.80;7.93;;;28.40;54.40;;;;;;5022687;28;20444;-45
2021/06/22 08:21:02;;;;;;;9.17;8.37;;;28.40;54.60;;;;;;5027089;28;20649;-48
2021/06/22 08:23:28;;;;;;;7.87;7.17;;;28.40;54.50;;;;;;5030359;28;20288;-46
2021/06/22 08:25:55;;;;;;;5.93;5.43;;;28.40;54.60;;;;;;5029587;28;20482;-47
2021/06/22 08:28:21;;;;;;;8.60;7.77;;;28.50;54.80;;;;;;5030388;28;20966;-46
2021/06/22 08:30:47;;;;;;;8.30;7.60;;;28.40;54.90;;;;;;5026179;28;20455;-48
2021/06/22 08:33:13;;;;;;;8.70;8.00;;;28.50;55.10;;;;;;5020170;28;20528;-50
2021/06/22 08:35:40;;;;;;;10.10;8.03;;;28.50;55.30;;;;;;5019380;28;20626;-47
2021/06/22 08:38:09;;;;;;;8.40;7.60;;;28.60;55.60;;;;;;5017308;28;20544;-50
2021/06/22 08:40:39;;;;;;;10.63;7.87;;;28.60;55.70;;;;;;5026380;28;20542;-47
2021/06/22 08:43:04;;;;;;;8.87;7.97;;;28.70;55.50;;;;;;5031343;28;20451;-49
2021/06/22 08:45:30;;;;;;;10.73;8.50;;;28.80;55.30;;;;;;5017594;28;20798;-47
2021/06/22 08:47:56;;;;;;;7.77;7.03;;;28.80;55.10;;;;;;5029397;28;20201;-48
2021/06/22 08:50:23;;;;;;;9.53;8.03;;;28.70;55.00;;;;;;5028244;28;20190;-47
2021/06/22 08:52:48;;;;;;;9.20;8.13;;;28.80;55.40;;;;;;5028658;28;20193;-50
2021/06/22 08:55:26;;;;;;;8.33;7.63;;;28.70;54.50;;;;;;5028220;28;21081;-51
2021/06/22 08:57:57;;;;;;;10.40;7.80;;;28.60;54.60;;;;;;5030351;28;20556;-50
2021/06/22 09:00:23;;;;;;;7.50;6.90;;;28.60;54.80;;;;;;5029842;28;20599;-50
2021/06/22 09:03:00;;;;;;;13.07;10.80;;;28.50;55.20;;;;;;5029959;28;20531;-47
2021/06/22 09:05:26;;;;;;;11.50;10.40;;;28.50;56.30;;;;;;5028223;28;20216;-50
2021/06/22 09:07:55;;;;;;;10.67;9.77;;;28.30;56.90;;;;;;5026955;28;20919;-46
2021/06/22 09:10:31;;;;;;;12.37;10.50;;;28.20;57.50;;;;;;5029914;28;20193;-49
2021/06/22 09:13:09;;;;;;;12.37;11.17;;;28.10;57.20;;;;;;5029846;28;20468;-46
2021/06/22 09:15:40;;;;;;;15.03;10.93;;;28.00;57.40;;;;;;5028295;28;20487;-48
2021/06/22 09:18:20;;;;;;;12.03;10.97;;;27.90;57.60;;;;;;5027009;28;21265;-46
2021/06/22 09:20:46;;;;;;;10.60;9.60;;;27.90;57.80;;;;;;5024217;28;20439;-46
2021/06/22 09:23:25;;;;;;;10.37;9.47;;;27.80;58.00;;;;;;5027099;28;20441;-49
2021/06/22 09:25:54;;;;;;;10.53;9.73;;;27.80;58.20;;;;;;5029334;28;20198;-46
2021/06/22 09:28:27;;;;;;;9.87;8.87;;;27.80;57.90;;;;;;5028068;28;20470;-48
2021/06/22 09:30:57;;;;;;;10.10;9.13;;;27.70;57.40;;;;;;5024100;28;20552;-51
2021/06/22 09:33:27;;;;;;;9.37;8.47;;;27.60;57.10;;;;;;5029820;28;20478;-47
2021/06/22 09:36:04;;;;;;;7.67;7.07;;;27.70;57.60;;;;;;5026630;28;20491;-51
2021/06/22 09:38:45;;;;;;;9.50;8.57;;;27.70;57.70;;;;;;5022001;28;20440;-50
2021/06/22 09:41:14;;;;;;;9.50;8.70;;;27.80;57.60;;;;;;5029292;28;20478;-50
2021/06/22 09:43:46;;;;;;;8.30;7.60;;;27.90;57.10;;;;;;5019617;28;20452;-51
2021/06/22 09:46:14;;;;;;;9.47;8.57;;;27.90;56.70;;;;;;5023199;28;20436;-51
2021/06/22 09:48:58;;;;;;;12.50;8.50;;;27.80;57.10;;;;;;5030806;28;20447;-48
2021/06/22 09:51:58;;;;;;;9.40;8.60;;;27.90;57.00;;;;;;5028019;28;20787;-51
2021/06/22 09:54:46;;;;;;;9.70;8.90;;;28.00;56.80;;;;;;5030465;28;20436;-50
2021/06/22 09:57:16;;;;;;;8.47;7.77;;;28.10;56.80;;;;;;5024753;28;20530;-50
2021/06/22 09:59:49;;;;;;;10.70;9.53;;;28.10;56.90;;;;;;5019667;28;20439;-50
2021/06/22 10:02:15;;;;;;;9.10;8.40;;;28.20;56.60;;;;;;5028568;28;20852;-51
2021/06/22 10:04:44;;;;;;;10.93;7.90;;;28.20;56.40;;;;;;5029535;28;20792;-52
2021/06/22 10:07:11;;;;;;;8.77;8.07;;;28.20;56.20;;;;;;5031497;28;20424;-50
2021/06/22 10:09:37;;;;;;;8.87;8.03;;;28.00;56.00;;;;;;5024002;28;20432;-48
2021/06/22 10:12:14;;;;;;;9.90;9.10;;;27.70;57.50;;;;;;5032146;28;20525;-51
2021/06/22 10:14:44;;;;;;;10.10;8.77;;;27.70;57.80;;;;;;5014219;28;20447;-51
2021/06/22 10:17:14;;;;;;;12.43;9.63;;;27.80;58.00;;;;;;5024592;28;20436;-50
2021/06/22 10:19:41;;;;;;;9.70;8.80;;;27.90;58.00;;;;;;5032122;28;20924;-51
2021/06/22 10:22:08;;;;;;;10.20;9.33;;;27.90;57.90;;;;;;5026060;28;20424;-50
2021/06/22 10:24:38;;;;;;;10.60;9.30;;;27.80;58.30;;;;;;5027859;28;20466;-50
2021/06/22 10:27:04;;;;;;;9.90;9.10;;;27.80;57.80;;;;;;5033145;28;20525;-50
2021/06/22 10:29:31;;;;;;;9.90;9.20;;;27.80;58.00;;;;;;5032988;28;20424;-50
2021/06/22 10:31:58;;;;;;;9.47;8.77;;;27.90;58.00;;;;;;5032295;28;20432;-50
2021/06/22 10:34:24;;;;;;;10.63;9.60;;;27.90;57.90;;;;;;5026981;28;20449;-50
2021/06/22 10:37:08;;;;;;;9.87;9.07;;;27.70;57.60;;;;;;5029256;28;20489;-51
2021/06/22 10:39:48;;;;;;;10.03;9.13;;;27.60;58.10;;;;;;5024304;28;20197;-48
2021/06/22 10:42:14;;;;;;;11.00;10.07;;;27.50;57.80;;;;;;5020794;28;20458;-51
2021/06/22 10:44:50;;;;;;;10.23;9.33;;;27.40;57.90;;;;;;5028320;28;20440;-49
2021/06/22 10:47:22;;;;;;;8.13;5.83;;;27.50;58.00;;;;;;5024284;28;20432;-49
2021/06/22 10:50:07;;;;;;;7.47;6.77;;;27.60;58.00;;;;;;5031508;28;20452;-48
2021/06/22 10:52:44;;;;;;;8.13;7.50;;;27.70;57.90;;;;;;5032239;28;20449;-46
2021/06/22 10:55:18;;;;;;;9.10;8.30;;;27.80;57.30;;;;;;5029140;28;20479;-49
2021/06/22 10:58:02;;;;;;;5.60;5.10;;;27.90;57.00;;;;;;5025978;28;20444;-47
2021/06/22 11:00:54;;;;;;;8.93;8.10;;;28.00;56.50;;;;;;5025313;28;20525;-51
2021/06/22 11:03:32;;;;;;;7.57;7.00;;;28.20;56.50;;;;;;5032692;28;20440;-51
2021/06/22 11:06:12;;;;;;;8.27;7.67;;;28.20;56.30;;;;;;5032136;28;21003;-47
2021/06/22 11:08:41;;;;;;;8.20;7.50;;;28.30;56.20;;;;;;5030848;28;20444;-50
2021/06/22 11:11:06;;;;;;;7.30;6.53;;;28.30;55.80;;;;;;5028897;28;20471;-50
2021/06/22 11:13:46;;;;;;;4.40;4.10;;;28.40;55.90;;;;;;5031183;28;20507;-51
2021/06/22 11:16:17;;;;;;;6.40;4.87;;;28.30;55.10;;;;;;5028757;28;20228;-50
2021/06/22 11:18:52;;;;;;;6.43;5.20;;;28.20;54.90;;;;;;5030979;28;20527;-52
2021/06/22 11:21:47;;;;;;;5.40;5.00;;;28.20;55.20;;;;;;5032098;28;20446;-47
2021/06/22 11:24:17;;;;;;;7.23;5.60;;;28.20;55.40;;;;;;5029139;28;20439;-49
2021/06/22 11:27:22;;;;;;;5.10;4.00;;;28.10;55.20;;;;;;5019939;28;20779;-51
2021/06/22 11:29:47;;;;;;;5.43;4.80;;;28.20;55.60;;;;;;5029264;28;20809;-47
2021/06/22 11:32:32;;;;;;;6.60;6.00;;;28.30;55.60;;;;;;5031791;28;20809;-49
2021/06/22 11:34:57;;;;;;;6.40;5.90;;;28.40;55.30;;;;;;5029993;28;20499;-47
2021/06/22 11:37:25;;;;;;;7.30;6.70;;;28.20;55.60;;;;;;5024186;28;20507;-51
2021/06/22 11:40:07;;;;;;;7.07;6.37;;;27.80;56.00;;;;;;5027433;28;20292;-52
2021/06/22 11:42:38;;;;;;;6.97;5.30;;;27.60;56.60;;;;;;5026370;28;20872;-49
2021/06/22 11:45:04;;;;;;;12.07;10.70;;;27.50;56.90;;;;;;5030604;28;20443;-48
2021/06/22 11:47:32;;;;;;;14.03;9.00;;;27.50;57.00;;;;;;5028884;28;20494;-49
2021/06/22 11:50:24;;;;;;;8.50;7.80;;;27.50;57.00;;;;;;5031201;28;20439;-49
2021/06/22 11:53:01;;;;;;;8.73;8.03;;;27.50;57.00;;;;;;5023366;28;20865;-52
2021/06/22 11:55:27;;;;;;;9.43;8.60;;;27.30;57.20;;;;;;5021806;28;21164;-48
2021/06/22 11:57:59;;;;;;;11.93;8.80;;;27.30;57.60;;;;;;5028693;28;20436;-52
2021/06/22 12:00:28;;;;;;;9.20;8.17;;;27.20;57.80;;;;;;5028713;28;20186;-51
2021/06/22 12:02:56;;;;;;;7.80;6.47;;;27.20;57.60;;;;;;5031373;28;20451;-49
2021/06/22 12:05:25;;;;;;;6.60;6.00;;;27.10;56.10;;;;;;5026237;28;20460;-48
2021/06/22 12:07:56;;;;;;;6.27;5.67;;;27.10;55.90;;;;;;5029565;28;20526;-48
2021/06/22 12:10:39;;;;;;;6.23;5.60;;;27.00;55.60;;;;;;5031198;28;20437;-48
2021/06/22 12:13:05;;;;;;;6.80;6.17;;;26.90;56.20;;;;;;5027888;28;20467;-49
2021/06/22 12:15:33;;;;;;;6.47;5.43;;;27.00;56.30;;;;;;5026194;28;20484;-49
2021/06/22 12:18:00;;;;;;;6.73;5.30;;;27.10;56.00;;;;;;5023049;28;20943;-47
2021/06/22 12:20:28;;;;;;;6.20;5.57;;;27.10;55.80;;;;;;5027503;28;20796;-47
2021/06/22 12:23:12;;;;;;;5.60;5.10;;;27.10;55.70;;;;;;5026655;28;20444;-48
2021/06/22 12:25:53;;;;;;;6.27;5.67;;;27.10;55.90;;;;;;5019437;28;20595;-50
2021/06/22 12:28:22;;;;;;;5.30;4.90;;;27.00;55.90;;;;;;5030284;28;20490;-49
2021/06/22 12:30:56;;;;;;;5.93;5.43;;;26.90;55.90;;;;;;5028522;28;20965;-48
2021/06/22 12:33:28;;;;;;;5.67;5.13;;;26.90;56.00;;;;;;5027974;28;20493;-47
2021/06/22 12:36:00;;;;;;;5.80;5.10;;;26.80;56.00;;;;;;5027894;28;20492;-46
2021/06/22 12:38:28;;;;;;;5.00;4.50;;;26.80;55.80;;;;;;5028804;28;20527;-51
2021/06/22 12:40:59;;;;;;;5.33;4.00;;;26.80;55.70;;;;;;5028355;28;20440;-48
2021/06/22 12:43:45;;;;;;;6.17;4.90;;;26.70;55.40;;;;;;5026603;28;20539;-51
2021/06/22 12:46:13;;;;;;;4.10;3.77;;;26.70;55.70;;;;;;5029275;28;20432;-51
2021/06/22 12:48:40;;;;;;;3.83;3.43;;;26.50;55.40;;;;;;5029982;28;20431;-51
2021/06/22 12:51:06;;;;;;;3.27;2.83;;;26.40;55.50;;;;;;5029855;28;20479;-51